Ana Sayfa
METAR-TAF:

METAR-TAF

Havaalanları :

Bullhead City, Arizona, Amerika Birleşik Devletleri

Enlem: 35-09-27N, Boylam: 114-33-34W, yükseklik: 212 m

Güncel hava durumu gözlemi

Rapor saat 17:48 UTC de 34 dakika önce yapıldı.
Rüzgar güney/güneybatıdan 4 kt
Sıcaklık 35°C
Nem 20%
Basınç 1014 hPa
Görüş mesafesi: 16.1 km
Açık gökyüzü

METAR: KIFP 221748Z 20004KT 10SM SKC 35/09 A2993

Saat: 11:22 (18:22 UTC)

Tahmin

Rapor saat 17:20 UTC de 1 saat ve 2 dakika önce yapıldı.
Ayın 22'si saat 18 UTC'den ayın 23'si saat 18 UTC'ye kadar geçerli Tahmin
Rüzgar güneydan 11 kt ve 19 kt'a kadar ani rüzgarlar
Görüş mesafesi: 10 km
Açık gökyüzü
Ayın 23'si saat 0200 UTC'den
Rüzgar güney/güneydoğudan 6 kt
Görüş mesafesi: 10 km
Açık gökyüzü

TAF: KIFP 221720Z 2218/2318 19011G19KT P6SM SKC FM230200 16006KT P6SM SKC AMD NOT SKED 2301/2315

4.000'den fazla havaalanı için hava durumu gözlemleri ve tahminleri (METAR ve TAF raporları).

Kullanılabilir istasyonlar harita üzerinde sarı ve kırmızı noktalarla gösterilir.

İstasyonun adını görmek için fareyi noktanın üzerinde gezdirin.

Sonrasında hava gözlem ve tahminlerini görmek için tıklayın.

Haritayı değiştirmek için: yaklaştırmak için siyah artı işaretli yeşil düğmeye ve uzaklaştırmak için de eksi işaretli düğmeye hızla tıklayın; bitişik haritalar için yeşil okları kullanın.


METAR-TAF: